Time;durP1;ratioP1;P1;durP2;ratioP2;P2;SDS_P1;SDS_P2;PMS_P1;PMS_P2;Temp;Humidity;BMP_temperature;BMP_pressure;BME280_temperature;BME280_humidity;BME280_pressure;Samples;Min_cycle;Max_cycle;Signal;HPM_P1;HPM_P2
2022/10/02 00:00:21;;;;;;;6.35;2.13;;;;;;;21.70;100.00;99623.97;5070495;28;20039;-74
2022/10/02 00:02:52;;;;;;;6.78;2.53;;;;;;;22.00;100.00;99656.97;5070459;28;20126;-74
2022/10/02 00:05:35;;;;;;;5.38;2.03;;;;;;;21.90;100.00;99703.50;5069281;28;20411;-74
2022/10/02 00:08:10;;;;;;;7.68;2.20;;;;;;;21.49;100.00;99657.53;5071084;28;20032;-74
2022/10/02 00:10:49;;;;;;;17.10;3.50;;;;;;;20.83;100.00;99597.22;5069074;28;20028;-72
2022/10/02 00:13:21;;;;;;;12.45;4.60;;;;;;;20.33;100.00;99544.19;5070889;28;20036;-72
2022/10/02 00:15:48;;;;;;;15.27;3.75;;;;;;;19.72;100.00;99434.38;5071250;28;20487;-72
2022/10/02 00:18:18;;;;;;;13.90;3.75;;;;;;;19.70;100.00;99419.00;5070746;28;20029;-72
2022/10/02 00:21:11;;;;;;;9.88;3.33;;;;;;;19.88;100.00;99464.09;5071165;28;20036;-72
2022/10/02 00:23:57;;;;;;;10.85;3.60;;;;;;;19.45;100.00;99385.63;5070306;28;20032;-73
2022/10/02 00:26:32;;;;;;;8.23;3.35;;;;;;;19.81;100.00;99426.75;5071273;28;20072;-75
2022/10/02 00:29:18;;;;;;;8.52;3.20;;;;;;;19.87;100.00;99453.84;5070861;28;20119;-73
2022/10/02 00:31:59;;;;;;;7.95;3.40;;;;;;;19.72;100.00;99440.34;5029588;28;20036;-72
2022/10/02 00:35:12;;;;;;;11.15;3.35;;;;;;;19.45;100.00;99387.41;5071237;28;20025;-72
2022/10/02 00:38:12;;;;;;;7.38;3.47;;;;;;;19.72;100.00;99409.41;4992952;28;20029;-74
2022/10/02 00:41:08;;;;;;;7.00;3.50;;;;;;;19.64;100.00;99401.41;5036610;28;20044;-73
2022/10/02 00:43:34;;;;;;;6.80;3.35;;;;;;;19.23;100.00;99333.16;5069853;28;20063;-72
2022/10/02 00:46:02;;;;;;;7.00;3.35;;;;;;;19.72;100.00;99356.97;5071140;28;20024;-73
2022/10/02 00:48:40;;;;;;;9.30;3.58;;;;;;;19.75;100.00;99351.56;5070865;28;20090;-73
2022/10/02 00:51:40;;;;;;;8.15;3.00;;;;;;;19.65;100.00;99315.34;5069596;28;20033;-73
2022/10/02 00:54:25;;;;;;;5.50;3.38;;;;;;;19.47;100.00;99251.47;5071084;28;20033;-73
2022/10/02 00:57:01;;;;;;;7.07;3.17;;;;;;;19.46;100.00;99205.97;5070825;28;20032;-73
2022/10/02 00:59:50;;;;;;;7.45;2.97;;;;;;;19.16;100.00;99136.09;5070710;28;20035;-73
2022/10/02 01:02:30;;;;;;;8.48;2.70;;;;;;;19.55;100.00;99236.22;5070933;28;20137;-72
2022/10/02 01:05:07;;;;;;;6.65;2.90;;;;;;;19.63;100.00;99264.81;5069768;28;20035;-72
2022/10/02 01:07:35;;;;;;;7.10;2.92;;;;;;;19.27;100.00;99185.91;5070719;28;20032;-73
2022/10/02 01:10:01;;;;;;;4.85;2.33;;;;;;;19.54;100.00;99279.22;5070299;28;20028;-72
2022/10/02 01:12:27;;;;;;;5.82;2.63;;;;;;;19.58;100.00;99288.38;5069426;28;20032;-73
2022/10/02 01:14:52;;;;;;;6.95;2.67;;;;;;;19.58;100.00;99246.28;5069778;28;20040;-73
2022/10/02 01:17:23;;;;;;;8.70;3.10;;;;;;;19.24;100.00;99151.78;5070504;28;20028;-72
2022/10/02 01:19:49;;;;;;;8.88;3.20;;;;;;;19.44;100.00;99213.00;5069910;28;20025;-75
2022/10/02 01:22:14;;;;;;;8.48;3.03;;;;;;;19.48;100.00;99228.13;5069630;28;20036;-73
2022/10/02 01:24:51;;;;;;;5.90;2.80;;;;;;;19.08;100.00;99200.28;5069715;28;20044;-73
2022/10/02 01:27:17;;;;;;;5.88;2.70;;;;;;;19.41;100.00;99298.31;5071046;28;20032;-76
2022/10/02 01:29:45;;;;;;;6.25;2.10;;;;;;;19.29;100.00;99276.84;5073172;28;20028;-72
2022/10/02 01:32:10;;;;;;;4.85;1.60;;;;;;;19.32;100.00;99291.22;5089572;28;20024;-72
2022/10/02 01:34:37;;;;;;;3.80;2.00;;;;;;;19.36;100.00;99290.09;5071845;28;20081;-72
2022/10/02 01:37:03;;;;;;;4.00;1.50;;;;;;;19.38;100.00;99291.63;5069570;28;20509;-73
2022/10/02 01:39:29;;;;;;;5.25;1.50;;;;;;;19.65;100.00;99350.63;5073210;28;20036;-73
2022/10/02 01:41:55;;;;;;;5.35;1.60;;;;;;;19.19;100.00;99275.06;5071973;28;20024;-72
2022/10/02 01:44:22;;;;;;;4.00;1.30;;;;;;;19.63;100.00;99294.00;5073435;28;20103;-73
2022/10/02 01:47:01;;;;;;;4.65;1.48;;;;;;;20.18;100.00;99375.78;5073258;28;20025;-72
2022/10/02 01:49:51;;;;;;;2.53;1.75;;;;;;;20.10;100.00;99331.66;5072767;28;20038;-74
2022/10/02 01:52:41;;;;;;;3.25;1.40;;;;;;;20.09;100.00;99385.94;5072524;28;20115;-73
2022/10/02 01:55:32;;;;;;;4.60;1.67;;;;;;;20.08;100.00;99387.75;5086454;28;20108;-72
2022/10/02 01:58:06;;;;;;;4.07;1.83;;;;;;;19.91;100.00;99374.47;5056277;28;20089;-76
2022/10/02 02:01:02;;;;;;;3.47;1.70;;;;;;;19.58;100.00;99354.59;5072513;28;20028;-73
2022/10/02 02:03:43;;;;;;;5.57;2.08;;;;;;;19.70;100.00;99374.31;5070176;28;20024;-73
2022/10/02 02:06:35;;;;;;;4.97;1.80;;;;;;;19.74;100.00;99376.56;5070632;28;20487;-75
2022/10/02 02:09:30;;;;;;;6.35;2.22;;;;;;;19.44;100.00;99331.59;5069353;28;20047;-73
2022/10/02 02:12:13;;;;;;;5.03;2.20;;;;;;;19.61;100.00;99349.22;5066514;28;20048;-76
2022/10/02 02:14:46;;;;;;;3.45;2.10;;;;;;;19.36;100.00;99354.56;5071146;28;20024;-75
2022/10/02 02:17:25;;;;;;;4.90;2.05;;;;;;;19.36;100.00;99323.63;5073166;28;20032;-73
2022/10/02 02:20:12;;;;;;;4.13;2.10;;;;;;;19.22;100.00;99313.47;5072268;28;20077;-75
2022/10/02 02:22:45;;;;;;;5.88;1.90;;;;;;;19.26;100.00;99313.13;5068876;28;20036;-74
2022/10/02 02:25:17;;;;;;;5.25;2.20;;;;;;;19.37;100.00;99362.16;5072231;28;20438;-75
2022/10/02 02:27:49;;;;;;;4.50;1.98;;;;;;;19.41;100.00;99398.88;5071600;28;20021;-75
2022/10/02 02:30:16;;;;;;;4.07;2.30;;;;;;;19.26;100.00;99399.94;5071713;28;20081;-73
2022/10/02 02:32:49;;;;;;;5.70;1.92;;;;;;;19.35;100.00;99405.28;5070468;28;20063;-73
2022/10/02 02:35:25;;;;;;;5.00;2.08;;;;;;;19.39;100.00;99408.47;5072014;28;20033;-73
2022/10/02 02:37:55;;;;;;;3.38;1.83;;;;;;;19.16;100.00;99386.91;5070660;28;20138;-73
2022/10/02 02:40:27;;;;;;;4.38;1.77;;;;;;;19.34;100.00;99382.19;5072479;28;20050;-75
2022/10/02 02:43:06;;;;;;;3.60;1.80;;;;;;;19.45;100.00;99423.50;5072779;28;20059;-75
2022/10/02 02:45:43;;;;;;;3.85;1.58;;;;;;;19.63;100.00;99440.22;5072355;28;20487;-75
2022/10/02 02:48:20;;;;;;;2.63;1.40;;;;;;;19.31;100.00;99382.41;5071679;28;20111;-74
2022/10/02 02:50:51;;;;;;;5.93;1.77;;;;;;;19.18;100.00;99382.47;5069518;28;20744;-76
2022/10/02 02:53:23;;;;;;;3.83;1.40;;;;;;;19.57;100.00;99448.41;5072161;28;20487;-74
2022/10/02 02:55:58;;;;;;;5.45;1.75;;;;;;;19.27;100.00;99438.53;5071664;28;20025;-73
2022/10/02 02:58:23;;;;;;;3.80;1.50;;;;;;;19.73;100.00;99460.03;5069130;28;20025;-73
2022/10/02 03:00:49;;;;;;;4.47;1.50;;;;;;;19.52;100.00;99394.56;5070902;28;20031;-73
2022/10/02 03:03:14;;;;;;;4.90;1.30;;;;;;;19.81;100.00;99469.78;5071486;28;20036;-73
2022/10/02 03:05:48;;;;;;;3.15;1.40;;;;;;;19.45;100.00;99395.94;5071216;28;20032;-73
2022/10/02 03:08:36;;;;;;;4.22;1.60;;;;;;;19.91;100.00;99459.63;5071297;28;20061;-73
2022/10/02 03:11:29;;;;;;;3.70;1.20;;;;;;;20.21;100.00;99504.63;5067301;28;20028;-73
2022/10/02 03:14:28;;;;;;;2.92;1.30;;;;;;;20.22;100.00;99510.63;5071899;28;20056;-73
2022/10/02 03:16:56;;;;;;;2.90;1.30;;;;;;;20.30;100.00;99527.16;5065564;28;20028;-74
2022/10/02 03:19:31;;;;;;;2.15;1.27;;;;;;;20.11;100.00;99526.88;5071470;28;20024;-74
2022/10/02 03:22:15;;;;;;;4.90;1.55;;;;;;;20.00;100.00;99528.63;5069952;28;20035;-73
2022/10/02 03:25:04;;;;;;;2.85;1.50;;;;;;;20.11;100.00;99544.13;5057584;28;20055;-74
2022/10/02 03:27:38;;;;;;;4.15;1.75;;;;;;;20.15;100.00;99545.53;5071347;28;20052;-72
2022/10/02 03:30:14;;;;;;;2.58;1.58;;;;;;;20.31;100.00;99540.91;5070442;28;20086;-73
2022/10/02 03:32:45;;;;;;;3.00;1.67;;;;;;;20.28;100.00;99556.66;5071720;28;20032;-76
2022/10/02 03:35:12;;;;;;;3.45;1.60;;;;;;;19.87;100.00;99508.03;5071857;28;20406;-76
2022/10/02 03:37:44;;;;;;;3.78;2.00;;;;;;;19.41;100.00;99512.34;5069776;28;20478;-76
2022/10/02 03:40:10;;;;;;;4.95;2.53;;;;;;;18.94;100.00;99497.59;5071415;28;20422;-76
2022/10/02 03:42:36;;;;;;;4.75;2.90;;;;;;;18.47;100.00;99474.31;5071770;28;20028;-74
2022/10/02 03:45:02;;;;;;;6.45;3.70;;;;;;;18.60;100.00;99566.06;5069370;28;20025;-74
2022/10/02 03:47:27;;;;;;;8.65;4.10;;;;;;;18.20;100.00;99513.00;5069789;28;20088;-75
2022/10/02 03:49:53;;;;;;;6.90;4.60;;;;;;;18.03;100.00;99518.44;5069836;28;20501;-74
2022/10/02 03:52:20;;;;;;;6.25;4.03;;;;;;;18.05;100.00;99493.44;5069616;28;20590;-74
2022/10/02 03:54:51;;;;;;;8.00;4.20;;;;;;;18.64;100.00;99552.06;5071492;28;20545;-75
2022/10/02 03:57:23;;;;;;;6.65;4.55;;;;;;;18.39;100.00;99489.41;5071121;28;20029;-75
2022/10/02 04:00:00;;;;;;;6.43;3.70;;;;;;;18.88;100.00;99552.97;5065745;28;20021;-74
2022/10/02 04:02:37;;;;;;;3.83;2.25;;;;;;;19.49;100.00;99562.41;5070506;28;20037;-75
2022/10/02 04:05:27;;;;;;;2.10;1.40;;;;;;;20.04;100.00;99576.50;5070888;28;20034;-73
2022/10/02 04:07:59;;;;;;;3.08;1.27;;;;;;;20.20;100.00;99570.13;5071129;28;20028;-72
2022/10/02 04:10:49;;;;;;;3.00;1.50;;;;;;;20.30;100.00;99601.25;5069574;28;20040;-74
2022/10/02 04:13:42;;;;;;;2.45;1.50;;;;;;;20.23;100.00;99607.78;5068950;28;20039;-73
2022/10/02 04:16:36;;;;;;;1.65;1.00;;;;;;;20.24;100.00;99612.03;5054130;28;20028;-74
2022/10/02 04:19:32;;;;;;;3.13;1.17;;;;;;;20.23;100.00;99620.69;5069266;28;20552;-75
2022/10/02 04:22:34;;;;;;;1.35;0.85;;;;;;;20.05;100.00;99581.53;5058226;28;20033;-76
2022/10/02 04:25:33;;;;;;;2.28;0.85;;;;;;;20.36;100.00;99642.13;5060772;28;20049;-76
2022/10/02 04:28:04;;;;;;;1.67;0.82;;;;;;;20.17;100.00;99605.63;5060756;28;20411;-74
2022/10/02 04:30:29;;;;;;;2.70;1.00;;;;;;;20.18;100.00;99608.13;5069901;28;20934;-73
2022/10/02 04:33:05;;;;;;;2.63;1.08;;;;;;;20.02;100.00;99566.28;5069875;28;20267;-75
2022/10/02 04:35:36;;;;;;;3.90;1.02;;;;;;;20.11;100.00;99645.63;5071047;28;20040;-72
2022/10/02 04:38:20;;;;;;;2.70;1.30;;;;;;;20.01;100.00;99630.91;5070533;28;20201;-71
2022/10/02 04:40:49;;;;;;;2.35;1.50;;;;;;;19.78;100.00;99630.00;5069130;28;20037;-73
2022/10/02 04:43:27;;;;;;;4.25;1.35;;;;;;;19.32;100.00;99567.06;5070006;28;20060;-73
2022/10/02 04:46:26;;;;;;;1.92;0.90;;;;;;;19.80;100.00;99633.28;5070774;28;20060;-73
2022/10/02 04:49:04;;;;;;;2.83;0.90;;;;;;;19.98;100.00;99641.47;5071077;28;20120;-73
2022/10/02 04:51:38;;;;;;;3.45;0.88;;;;;;;19.86;100.00;99638.00;5070803;28;20111;-74
2022/10/02 04:54:42;;;;;;;2.65;1.10;;;;;;;19.75;100.00;99638.75;5069623;28;20028;-73
2022/10/02 04:57:19;;;;;;;1.95;0.80;;;;;;;19.70;100.00;99647.78;5071274;28;20089;-73
2022/10/02 04:59:54;;;;;;;2.00;0.85;;;;;;;19.75;100.00;99653.41;5070541;28;20506;-74
2022/10/02 05:02:40;;;;;;;1.13;0.70;;;;;;;19.87;100.00;99665.44;5072999;28;20081;-73
2022/10/02 05:05:20;;;;;;;1.88;0.65;;;;;;;19.92;100.00;99658.22;5074363;28;20483;-73
2022/10/02 05:08:04;;;;;;;1.75;0.60;;;;;;;19.91;100.00;99659.13;5073255;28;20517;-73
2022/10/02 05:10:44;;;;;;;1.67;0.63;;;;;;;19.63;100.00;99606.09;5074721;28;20032;-73
2022/10/02 05:13:16;;;;;;;2.60;0.60;;;;;;;19.91;100.00;99655.75;5073379;28;20036;-74
2022/10/02 05:15:52;;;;;;;1.77;0.73;;;;;;;19.94;100.00;99664.09;5073122;28;20501;-74
2022/10/02 05:18:29;;;;;;;3.25;0.85;;;;;;;20.00;100.00;99652.50;5073359;28;20029;-74
2022/10/02 05:20:59;;;;;;;1.70;0.68;;;;;;;19.89;100.00;99656.66;5074532;28;20060;-74
2022/10/02 05:23:37;;;;;;;2.95;0.63;;;;;;;19.84;100.00;99614.06;5074291;28;20079;-73
2022/10/02 05:26:27;;;;;;;2.58;0.80;;;;;;;20.00;100.00;99663.66;5074578;28;20411;-74
2022/10/02 05:29:14;;;;;;;2.25;0.68;;;;;;;20.21;100.00;99659.56;5073118;28;20039;-74
2022/10/02 05:31:48;;;;;;;2.80;0.77;;;;;;;20.25;100.00;99663.56;5073814;28;20067;-77
2022/10/02 05:34:19;;;;;;;2.17;0.80;;;;;;;20.24;100.00;99674.00;5074618;28;20027;-77
2022/10/02 05:37:11;;;;;;;2.25;0.60;;;;;;;20.22;100.00;99679.28;5073263;28;20097;-76
2022/10/02 05:39:51;;;;;;;0.88;0.60;;;;;;;20.22;100.00;99678.47;5074649;28;20116;-74
2022/10/02 05:42:26;;;;;;;3.17;0.52;;;;;;;20.31;100.00;99673.44;5083621;28;20429;-73
2022/10/02 05:45:15;;;;;;;1.98;0.80;;;;;;;20.32;100.00;99693.16;5089731;28;20024;-74
2022/10/02 05:47:45;;;;;;;1.73;0.60;;;;;;;20.44;100.00;99701.78;5073867;28;20025;-74
2022/10/02 05:50:11;;;;;;;2.05;0.52;;;;;;;20.44;100.00;99675.97;5073640;28;20032;-74
2022/10/02 05:52:45;;;;;;;1.27;0.70;;;;;;;20.31;100.00;99699.25;5074104;28;20119;-75
2022/10/02 05:55:45;;;;;;;2.90;1.92;;;;;;;20.35;100.00;99716.19;5074701;28;20078;-76
2022/10/02 05:58:26;;;;;;;2.65;1.40;;;;;;;20.34;100.00;99717.09;5074195;28;20106;-74
2022/10/02 06:01:16;;;;;;;3.17;1.25;;;;;;;20.41;100.00;99727.81;5072223;28;20043;-75
2022/10/02 06:04:15;;;;;;;2.55;0.98;;;;;;;20.45;100.00;99737.84;5073419;28;20028;-76
2022/10/02 06:06:47;;;;;;;1.75;1.10;;;;;;;20.37;100.00;99721.22;5072625;28;20391;-75
2022/10/02 06:09:12;;;;;;;2.55;1.40;;;;;;;21.09;100.00;99713.28;5072471;28;20452;-74
2022/10/02 06:11:45;;;;;;;2.95;1.40;;;;;;;20.87;100.00;99705.44;5072368;28;20029;-75
2022/10/02 06:14:29;;;;;;;2.58;1.50;;;;;;;20.89;100.00;99719.06;5073252;28;20024;-72
2022/10/02 06:17:03;;;;;;;3.67;1.85;;;;;;;20.88;100.00;99672.66;5071877;28;20123;-75
2022/10/02 06:19:39;;;;;;;4.53;1.80;;;;;;;20.79;100.00;99737.94;5073373;28;20056;-76
2022/10/02 06:22:07;;;;;;;5.85;2.15;;;;;;;21.32;100.00;99720.09;5073084;28;20028;-74
2022/10/02 06:24:39;;;;;;;2.55;2.00;;;;;;;21.67;100.00;99719.97;5073367;28;20494;-76
2022/10/02 06:27:46;;;;;;;5.30;1.67;;;;;;;22.01;100.00;99718.16;5073949;28;20086;-76
2022/10/02 06:30:15;;;;;;;2.63;1.85;;;;;;;21.92;100.00;99724.09;5072443;28;20045;-75
2022/10/02 06:33:01;;;;;;;4.15;1.73;;;;;;;21.99;100.00;99733.84;5073600;28;20046;-76
2022/10/02 06:36:05;;;;;;;3.55;1.73;;;;;;;22.29;100.00;99726.22;5072965;28;20038;-78
2022/10/02 06:38:55;;;;;;;2.75;1.58;;;;;;;22.25;100.00;99726.59;5041748;28;20044;-75
2022/10/02 06:41:39;;;;;;;2.95;1.50;;;;;;;22.25;100.00;99724.81;5070585;28;20034;-77
2022/10/02 06:44:18;;;;;;;1.67;1.30;;;;;;;22.22;100.00;99719.06;5063212;28;20529;-75
2022/10/02 06:47:05;;;;;;;3.00;1.50;;;;;;;22.75;100.00;99717.34;5076600;28;20043;-75
2022/10/02 06:49:36;;;;;;;3.75;1.30;;;;;;;22.86;100.00;99718.09;5078525;28;20375;-76
2022/10/02 06:52:01;;;;;;;;;;;;;;;22.98;100.00;99724.03;5068192;28;20033;-74
2022/10/02 06:55:12;;;;;;;2.20;1.27;;;;;;;22.95;100.00;99711.31;5072809;28;19912;-74
2022/10/02 06:57:47;;;;;;;2.35;1.50;;;;;;;22.93;100.00;99714.06;5072542;28;20267;-76
2022/10/02 07:00:17;;;;;;;2.50;1.30;;;;;;;23.09;100.00;99717.03;5088557;28;20516;-75
2022/10/02 07:02:54;;;;;;;3.38;1.20;;;;;;;23.66;100.00;99721.66;5071008;28;20029;-75
2022/10/02 07:05:28;;;;;;;1.52;1.20;;;;;;;23.97;100.00;99738.81;5073136;28;20024;-76
2022/10/02 07:08:10;;;;;;;2.13;1.20;;;;;;;23.64;100.00;99726.16;5072348;28;20078;-74
2022/10/02 07:10:48;;;;;;;3.00;1.08;;;;;;;23.11;100.00;99748.84;5061661;28;20025;-77
2022/10/02 07:13:47;;;;;;;4.63;1.33;;;;;;;23.08;100.00;99751.69;5071730;28;20028;-76
2022/10/02 07:16:31;;;;;;;4.38;1.23;;;;;;;23.15;100.00;99713.91;5073141;28;20024;-75
2022/10/02 07:19:44;;;;;;;2.95;1.20;;;;;;;23.44;100.00;99759.94;5074602;28;20043;-75
2022/10/02 07:22:37;;;;;;;4.85;1.13;;;;;;;23.74;100.00;99775.53;5010766;28;20599;-75
2022/10/02 07:25:17;;;;;;;2.08;0.90;;;;;;;23.53;100.00;99778.16;5009745;28;20196;-72
2022/10/02 07:28:12;;;;;;;1.83;1.00;;;;;;;23.73;100.00;99784.28;5067608;28;20044;-72
2022/10/02 07:31:04;;;;;;;1.35;0.63;;;;;;;23.57;93.31;99782.13;5072394;28;20051;-74
2022/10/02 07:33:58;;;;;;;1.08;0.80;;;;;;;24.13;91.61;99789.50;5044792;28;20041;-74
2022/10/02 07:36:47;;;;;;;5.82;0.70;;;;;;;23.35;91.77;99748.59;5070541;28;20028;-73
2022/10/02 07:39:32;;;;;;;2.90;1.00;;;;;;;23.89;88.35;99795.81;5086868;28;20043;-73
2022/10/02 07:45:40;;;;;;;3.60;0.90;;;;;;;23.64;87.36;99793.66;5072295;28;20127;-74
2022/10/02 07:48:09;;;;;;;2.85;0.70;;;;;;;23.71;84.70;99788.78;5071986;28;20025;-74
2022/10/02 07:50:48;;;;;;;1.67;0.70;;;;;;;23.88;80.95;99773.41;5071580;28;20128;-73
2022/10/02 07:53:39;;;;;;;1.25;0.70;;;;;;;24.22;81.45;99789.50;5071534;28;20024;-71
2022/10/02 07:56:06;;;;;;;;;;;;;;;24.12;79.29;99790.44;5071264;28;20045;-70
2022/10/02 07:58:48;;;;;;;2.85;0.60;;;;;;;23.76;77.18;99794.41;5086569;28;19912;-71
2022/10/02 08:01:18;;;;;;;2.38;0.77;;;;;;;23.65;75.71;99778.91;5070048;28;20538;-70
2022/10/02 08:03:48;;;;;;;0.88;0.57;;;;;;;23.88;74.36;99777.75;5069452;28;20371;-72
2022/10/02 08:06:15;;;;;;;2.55;0.73;;;;;;;23.82;73.82;99767.91;5069131;28;20032;-72
2022/10/02 08:09:08;;;;;;;2.17;0.65;;;;;;;24.35;69.99;99784.03;5070427;28;20483;-71
2022/10/02 08:11:42;;;;;;;1.40;0.68;;;;;;;24.44;73.96;99776.28;5070211;28;20572;-72
2022/10/02 08:14:18;;;;;;;1.50;0.73;;;;;;;24.03;72.41;99758.28;5071391;28;20526;-72
2022/10/02 08:16:52;;;;;;;3.63;1.45;;;;;;;24.00;60.75;99758.53;5070105;28;20039;-73
2022/10/02 08:19:44;;;;;;;5.35;1.80;;;;;;;24.18;61.33;99801.13;5071168;28;20376;-73
2022/10/02 08:22:12;;;;;;;4.38;2.50;;;;;;;24.81;57.19;99792.03;5067587;28;20033;-73
2022/10/02 08:24:42;;;;;;;2.22;1.20;;;;;;;24.03;55.53;99747.88;5070419;28;20071;-73
2022/10/02 08:27:14;;;;;;;7.28;0.70;;;;;;;24.29;53.62;99807.97;5071519;28;20545;-72
2022/10/02 08:29:47;;;;;;;3.70;0.60;;;;;;;23.86;51.89;99746.75;5068988;28;20090;-74
2022/10/02 08:32:13;;;;;;;1.58;0.60;;;;;;;24.19;50.82;99742.16;5071160;28;20024;-73
2022/10/02 08:34:41;;;;;;;4.15;0.80;;;;;;;24.67;51.05;99724.81;5069625;28;20036;-73
2022/10/02 08:37:17;;;;;;;2.08;0.40;;;;;;;23.59;51.55;99689.38;5065511;28;20098;-73
2022/10/02 08:39:52;;;;;;;1.58;0.30;;;;;;;24.39;49.90;99788.03;5055719;28;20528;-73
2022/10/02 08:42:48;;;;;;;4.57;0.60;;;;;;;24.22;51.85;99799.09;5070703;28;20094;-73
2022/10/02 08:45:34;;;;;;;6.45;0.60;;;;;;;23.50;50.34;99733.47;5070161;28;20039;-74
2022/10/02 08:48:15;;;;;;;5.28;0.50;;;;;;;24.25;50.22;99804.00;5073829;28;20512;-71
2022/10/02 08:51:18;;;;;;;2.63;0.50;;;;;;;24.43;51.56;99821.41;5069648;28;20044;-74
2022/10/02 08:53:52;;;;;;;9.32;0.68;;;;;;;23.95;50.43;99846.41;5071706;28;20067;-74
2022/10/02 08:56:23;;;;;;;10.07;0.90;;;;;;;23.87;49.27;99838.44;5074773;28;20060;-76
2022/10/02 08:59:17;;;;;;;10.75;1.20;;;;;;;23.96;47.62;99789.16;5075579;28;20033;-76
2022/10/02 09:01:54;;;;;;;4.10;0.63;;;;;;;24.21;48.14;99834.63;5075355;28;20077;-76
2022/10/02 09:04:41;;;;;;;11.57;0.90;;;;;;;23.93;48.85;99828.34;5075196;28;20031;-75
2022/10/02 09:07:29;;;;;;;5.93;0.70;;;;;;;24.64;48.53;99808.31;5072868;28;20037;-75
2022/10/02 09:10:25;;;;;;;3.67;0.63;;;;;;;24.70;49.92;99802.56;5071275;28;20795;-73
2022/10/02 09:12:57;;;;;;;5.22;0.68;;;;;;;24.64;51.12;99808.31;5072035;28;20029;-71
2022/10/02 09:15:41;;;;;;;;;;;;;;;25.52;49.39;99798.53;5072551;28;20046;-72
2022/10/02 09:18:17;;;;;;;1.45;0.43;;;;;;;24.65;49.57;99799.53;5089717;28;19909;-73
2022/10/02 09:21:06;;;;;;;2.67;0.68;;;;;;;24.62;49.80;99799.81;5080366;28;20036;-76
2022/10/02 09:24:06;;;;;;;3.22;0.60;;;;;;;24.54;45.38;99778.88;5074627;28;20067;-77
2022/10/02 09:27:20;;;;;;;2.47;0.32;;;;;;;24.39;44.08;99777.63;5074655;28;20072;-76
2022/10/02 09:30:09;;;;;;;1.77;0.50;;;;;;;25.24;42.75;99818.44;5034500;28;20046;-78
2022/10/02 09:33:14;;;;;;;4.07;0.60;;;;;;;24.34;42.39;99772.03;5110603;28;20036;-77
2022/10/02 09:36:10;;;;;;;2.67;0.50;;;;;;;24.58;42.37;99780.25;5096136;28;20189;-77
2022/10/02 09:39:08;;;;;;;0.50;0.20;;;;;;;25.39;42.17;99808.41;5091489;28;20091;-76
2022/10/02 09:41:48;;;;;;;1.30;0.38;;;;;;;25.53;40.75;99800.97;5064852;28;20089;-74
2022/10/02 09:44:22;;;;;;;8.27;0.40;;;;;;;25.11;41.97;99807.50;5073861;28;20090;-75
2022/10/02 09:47:03;;;;;;;1.95;0.30;;;;;;;25.30;41.53;99810.06;5072141;28;20032;-75
2022/10/02 09:50:06;;;;;;;2.72;0.40;;;;;;;25.16;41.80;99786.25;5072437;28;20055;-78
2022/10/02 09:53:06;;;;;;;3.40;0.30;;;;;;;25.55;40.52;99801.66;5072289;28;20036;-77
2022/10/02 09:56:07;;;;;;;2.00;0.30;;;;;;;25.87;39.94;99795.25;5073768;28;20085;-77
2022/10/02 09:58:47;;;;;;;2.03;0.30;;;;;;;26.23;40.87;99797.81;5074162;28;20081;-77
2022/10/02 10:01:13;;;;;;;0.70;0.20;;;;;;;26.01;41.33;99798.16;5073072;28;20472;-76
2022/10/02 10:03:41;;;;;;;2.92;0.28;;;;;;;26.35;39.97;99808.84;5073054;28;20279;-76
2022/10/02 10:06:28;;;;;;;2.63;0.30;;;;;;;26.45;38.89;99802.59;5073184;28;20082;-76
2022/10/02 10:09:20;;;;;;;3.65;0.40;;;;;;;25.58;41.05;99772.75;4721256;28;10000025;-75
2022/10/02 10:12:07;;;;;;;3.72;0.30;;;;;;;25.66;40.92;99800.66;5066902;28;20032;-77
2022/10/02 10:15:19;;;;;;;13.23;0.68;;;;;;;26.19;40.57;99817.31;5070761;28;20033;-78
2022/10/02 10:18:25;;;;;;;1.90;0.35;;;;;;;25.58;41.16;99829.22;5081260;28;20035;-74
2022/10/02 10:21:23;;;;;;;0.82;0.50;;;;;;;26.44;40.17;99798.34;5093011;28;20032;-78
2022/10/02 10:23:51;;;;;;;3.00;0.30;;;;;;;25.51;40.19;99791.69;5093948;28;20402;-76
2022/10/02 10:26:37;;;;;;;2.58;0.30;;;;;;;25.53;40.27;99706.41;5092100;28;20043;-76
2022/10/02 10:29:30;;;;;;;5.35;0.30;;;;;;;25.57;40.08;99797.13;5093911;28;20040;-76
2022/10/02 10:32:31;;;;;;;2.83;0.50;;;;;;;25.19;41.31;99785.97;5092124;28;20076;-75
2022/10/02 10:35:38;;;;;;;1.67;0.50;;;;;;;25.75;40.84;99792.81;5066717;28;20083;-76
2022/10/02 10:38:34;;;;;;;4.55;0.40;;;;;;;26.69;40.25;99788.13;5062119;28;20478;-77
2022/10/02 10:41:29;;;;;;;2.35;0.52;;;;;;;26.35;40.45;99795.81;5071996;28;20111;-73
2022/10/02 10:44:16;;;;;;;1.45;0.30;;;;;;;26.42;40.71;99796.88;5043714;28;20041;-72
2022/10/02 10:46:52;;;;;;;2.67;0.40;;;;;;;26.20;41.08;99792.91;5065154;28;20036;-69
2022/10/02 10:49:34;;;;;;;2.28;0.40;;;;;;;26.20;39.75;99810.31;5052007;28;20170;-72
2022/10/02 10:52:12;;;;;;;2.90;0.40;;;;;;;25.62;40.78;99794.94;5067152;28;20463;-72
2022/10/02 10:54:55;;;;;;;2.85;0.30;;;;;;;25.15;40.82;99742.97;5067404;28;20028;-72
2022/10/02 10:57:29;;;;;;;3.65;1.48;;;;;;;26.35;40.42;99814.06;5052261;28;20044;-74
2022/10/02 11:00:02;;;;;;;4.72;1.35;;;;;;;25.47;40.94;99805.94;5066575;28;20029;-72
2022/10/02 11:03:07;;;;;;;4.35;1.70;;;;;;;25.71;40.83;99811.50;5050103;28;20106;-70
2022/10/02 11:05:36;;;;;;;4.53;1.20;;;;;;;25.39;41.33;99809.25;5049041;28;20123;-71
2022/10/02 11:08:29;;;;;;;4.78;1.20;;;;;;;25.83;41.73;99819.94;5052869;28;20115;-71
2022/10/02 11:11:17;;;;;;;6.10;2.33;;;;;;;25.41;42.40;99819.53;5071428;28;20032;-71
2022/10/02 11:13:49;;;;;;;2.75;0.60;;;;;;;25.15;42.11;99847.91;5070756;28;20051;-71
2022/10/02 11:16:23;;;;;;;5.70;0.60;;;;;;;25.59;42.00;99844.69;5071212;28;20032;-72
2022/10/02 11:19:16;;;;;;;2.85;0.40;;;;;;;25.54;41.70;99822.63;5069212;28;20039;-73
2022/10/02 11:22:02;;;;;;;3.70;0.55;;;;;;;25.20;42.31;99843.09;5067865;28;20036;-72
2022/10/02 11:24:37;;;;;;;4.38;0.50;;;;;;;25.29;42.10;99862.28;5063503;28;20088;-73
2022/10/02 11:27:39;;;;;;;6.15;3.70;;;;;;;26.09;40.83;99880.88;5051254;28;20106;-72
2022/10/02 11:30:21;;;;;;;2.25;0.70;;;;;;;25.55;42.38;99821.69;5066600;28;20403;-71
2022/10/02 11:33:03;;;;;;;3.72;0.47;;;;;;;24.60;43.06;99786.94;5050769;28;20036;-72
2022/10/02 11:36:08;;;;;;;3.33;0.50;;;;;;;25.84;42.34;99892.75;5065906;28;20021;-72
2022/10/02 11:38:44;;;;;;;4.20;0.50;;;;;;;25.44;42.75;99899.97;5065995;28;20033;-72
2022/10/02 11:41:46;;;;;;;3.33;0.60;;;;;;;25.25;43.28;99890.38;5051157;28;20064;-73
2022/10/02 11:44:26;;;;;;;1.75;0.80;;;;;;;25.27;42.82;99870.22;5082506;28;20032;-72
2022/10/02 11:47:27;;;;;;;4.18;1.80;;;;;;;25.69;42.75;99889.75;5068068;28;20505;-72
2022/10/02 11:50:01;;;;;;;2.97;1.08;;;;;;;25.22;43.12;99911.47;5059209;28;20082;-72
2022/10/02 11:52:45;;;;;;;5.43;1.30;;;;;;;25.50;43.65;99921.06;5059778;28;20469;-71
2022/10/02 11:55:23;;;;;;;9.55;4.43;;;;;;;25.19;43.95;99919.56;5077642;28;20547;-71
2022/10/02 11:58:04;;;;;;;5.00;2.58;;;;;;;25.43;44.07;99874.91;5077838;28;20431;-72
2022/10/02 12:00:50;;;;;;;;;;;;;;;25.64;43.67;99907.63;5066569;28;20039;-73
2022/10/02 12:03:35;;;;;;;5.03;0.50;;;;;;;25.62;44.03;99903.50;5061391;28;20298;-72
2022/10/02 12:06:17;;;;;;;7.57;3.17;;;;;;;25.92;43.23;99902.47;5062478;28;20036;-73
2022/10/02 12:08:50;;;;;;;11.90;4.72;;;;;;;25.28;43.50;99892.69;5069170;28;20033;-72
2022/10/02 12:11:42;;;;;;;9.48;2.53;;;;;;;25.22;43.96;99867.22;5067852;28;20040;-72
2022/10/02 12:14:13;;;;;;;;;;;;;;;25.70;44.00;99898.41;5070415;28;20032;-74
2022/10/02 12:16:54;;;;;;;7.85;3.30;;;;;;;25.45;42.72;99889.41;5086570;28;19909;-72
2022/10/02 12:19:19;;;;;;;10.03;1.27;;;;;;;24.81;43.64;99885.69;5087658;28;20101;-70
2022/10/02 12:27:51;;;;;;;3.55;0.50;;;;;;;25.21;44.24;99855.16;5089464;28;20047;-73
2022/10/02 12:30:18;;;;;;;5.07;0.70;;;;;;;25.45;43.83;99855.53;5076323;28;20036;-71
2022/10/02 12:33:06;;;;;;;5.10;0.70;;;;;;;24.69;44.69;99878.94;5090056;28;20028;-71
2022/10/02 12:35:32;;;;;;;4.57;0.30;;;;;;;25.25;45.31;99853.09;5089830;28;20109;-71
2022/10/02 12:38:15;;;;;;;3.85;0.70;;;;;;;24.85;46.45;99799.44;5090719;28;20111;-71
2022/10/02 12:41:02;;;;;;;4.05;0.77;;;;;;;25.23;45.46;99852.41;5090881;28;20077;-71